sensor_id;sensor_type;location;lat;lon;timestamp;temperature;humidity
40253;DHT22;25972;51.854;4.534;2022-09-09T00:02:22;15.10;99.90
40253;DHT22;25972;51.854;4.534;2022-09-09T00:15:19;15.00;99.90
40253;DHT22;25972;51.854;4.534;2022-09-09T00:17:52;15.00;99.90
40253;DHT22;25972;51.854;4.534;2022-09-09T00:23:12;15.00;99.90
40253;DHT22;25972;51.854;4.534;2022-09-09T00:25:53;15.00;99.90
40253;DHT22;25972;51.854;4.534;2022-09-09T00:28:26;14.90;99.90
40253;DHT22;25972;51.854;4.534;2022-09-09T00:30:53;15.00;99.90
40253;DHT22;25972;51.854;4.534;2022-09-09T00:33:23;15.00;99.90
40253;DHT22;25972;51.854;4.534;2022-09-09T00:35:51;14.90;99.90
40253;DHT22;25972;51.854;4.534;2022-09-09T00:38:41;14.90;99.90
40253;DHT22;25972;51.854;4.534;2022-09-09T00:47:31;14.90;99.90
40253;DHT22;25972;51.854;4.534;2022-09-09T00:50:13;14.90;99.90
40253;DHT22;25972;51.854;4.534;2022-09-09T00:52:45;14.90;99.90
40253;DHT22;25972;51.854;4.534;2022-09-09T00:58:01;14.90;99.90
40253;DHT22;25972;51.854;4.534;2022-09-09T01:00:38;14.80;99.90
40253;DHT22;25972;51.854;4.534;2022-09-09T01:17:05;14.90;99.90
40253;DHT22;25972;51.854;4.534;2022-09-09T01:20:36;15.00;99.90
40253;DHT22;25972;51.854;4.534;2022-09-09T01:25:56;15.00;99.90
40253;DHT22;25972;51.854;4.534;2022-09-09T01:28:28;15.10;99.90
40253;DHT22;25972;51.854;4.534;2022-09-09T01:31:02;15.10;99.90
40253;DHT22;25972;51.854;4.534;2022-09-09T01:33:34;15.10;99.90
40253;DHT22;25972;51.854;4.534;2022-09-09T01:36:13;15.00;99.90
40253;DHT22;25972;51.854;4.534;2022-09-09T01:38:47;15.00;99.90
40253;DHT22;25972;51.854;4.534;2022-09-09T01:41:13;15.00;99.90
40253;DHT22;25972;51.854;4.534;2022-09-09T01:43:48;15.00;99.90
40253;DHT22;25972;51.854;4.534;2022-09-09T01:46:15;15.00;99.90
40253;DHT22;25972;51.854;4.534;2022-09-09T01:48:42;15.00;99.90
40253;DHT22;25972;51.854;4.534;2022-09-09T01:51:09;15.00;99.90
40253;DHT22;25972;51.854;4.534;2022-09-09T01:53:36;15.00;99.90
40253;DHT22;25972;51.854;4.534;2022-09-09T01:56:15;15.00;99.90
40253;DHT22;25972;51.854;4.534;2022-09-09T02:04:44;15.10;99.90
40253;DHT22;25972;51.854;4.534;2022-09-09T02:07:40;15.10;99.90
40253;DHT22;25972;51.854;4.534;2022-09-09T02:10:30;15.10;99.90
40253;DHT22;25972;51.854;4.534;2022-09-09T02:13:13;15.20;99.90
40253;DHT22;25972;51.854;4.534;2022-09-09T02:18:15;15.10;99.90
40253;DHT22;25972;51.854;4.534;2022-09-09T02:20:45;15.10;99.90
40253;DHT22;25972;51.854;4.534;2022-09-09T02:23:11;15.10;99.90
40253;DHT22;25972;51.854;4.534;2022-09-09T02:25:39;15.10;99.90
40253;DHT22;25972;51.854;4.534;2022-09-09T02:28:17;15.10;99.90
40253;DHT22;25972;51.854;4.534;2022-09-09T02:30:45;15.00;99.90
40253;DHT22;25972;51.854;4.534;2022-09-09T02:33:14;15.10;99.90
40253;DHT22;25972;51.854;4.534;2022-09-09T02:35:47;15.00;99.90
40253;DHT22;25972;51.854;4.534;2022-09-09T02:38:16;15.00;99.90
40253;DHT22;25972;51.854;4.534;2022-09-09T02:40:52;15.00;99.90
40253;DHT22;25972;51.854;4.534;2022-09-09T02:43:17;14.90;99.90
40253;DHT22;25972;51.854;4.534;2022-09-09T02:46:09;15.00;99.90
40253;DHT22;25972;51.854;4.534;2022-09-09T02:56:47;14.90;99.90
40253;DHT22;25972;51.854;4.534;2022-09-09T02:59:16;14.90;99.90
40253;DHT22;25972;51.854;4.534;2022-09-09T03:01:41;14.90;99.90
40253;DHT22;25972;51.854;4.534;2022-09-09T03:04:09;14.80;99.90
40253;DHT22;25972;51.854;4.534;2022-09-09T03:06:35;14.80;99.90
40253;DHT22;25972;51.854;4.534;2022-09-09T03:09:12;14.80;99.90
40253;DHT22;25972;51.854;4.534;2022-09-09T03:11:38;14.80;99.90
40253;DHT22;25972;51.854;4.534;2022-09-09T03:14:04;14.80;99.90
40253;DHT22;25972;51.854;4.534;2022-09-09T03:16:31;14.80;99.90
40253;DHT22;25972;51.854;4.534;2022-09-09T03:18:59;14.70;99.90
40253;DHT22;25972;51.854;4.534;2022-09-09T03:21:24;14.80;99.90
40253;DHT22;25972;51.854;4.534;2022-09-09T03:23:50;14.80;99.90
40253;DHT22;25972;51.854;4.534;2022-09-09T03:26:16;14.80;99.90
40253;DHT22;25972;51.854;4.534;2022-09-09T03:28:44;14.80;99.90
40253;DHT22;25972;51.854;4.534;2022-09-09T03:31:12;14.80;99.90
40253;DHT22;25972;51.854;4.534;2022-09-09T03:33:40;14.80;99.90
40253;DHT22;25972;51.854;4.534;2022-09-09T03:36:07;14.80;99.90
40253;DHT22;25972;51.854;4.534;2022-09-09T03:38:36;14.80;99.90
40253;DHT22;25972;51.854;4.534;2022-09-09T03:41:02;14.80;99.90
40253;DHT22;25972;51.854;4.534;2022-09-09T03:43:29;14.80;99.90
40253;DHT22;25972;51.854;4.534;2022-09-09T03:45:56;14.70;99.90
40253;DHT22;25972;51.854;4.534;2022-09-09T03:48:27;14.70;99.90
40253;DHT22;25972;51.854;4.534;2022-09-09T03:50:54;14.70;99.90
40253;DHT22;25972;51.854;4.534;2022-09-09T03:53:22;14.70;99.90
40253;DHT22;25972;51.854;4.534;2022-09-09T03:55:50;14.70;99.90
40253;DHT22;25972;51.854;4.534;2022-09-09T03:58:22;14.60;99.90
40253;DHT22;25972;51.854;4.534;2022-09-09T04:00:59;14.60;99.90
40253;DHT22;25972;51.854;4.534;2022-09-09T04:03:26;14.60;99.90
40253;DHT22;25972;51.854;4.534;2022-09-09T04:05:53;14.50;99.90
40253;DHT22;25972;51.854;4.534;2022-09-09T04:08:21;14.50;99.90
40253;DHT22;25972;51.854;4.534;2022-09-09T04:10:48;14.50;99.90
40253;DHT22;25972;51.854;4.534;2022-09-09T04:13:16;14.50;99.90
40253;DHT22;25972;51.854;4.534;2022-09-09T04:15:44;14.50;99.90
40253;DHT22;25972;51.854;4.534;2022-09-09T04:18:15;14.40;99.90
40253;DHT22;25972;51.854;4.534;2022-09-09T04:20:41;14.50;99.90
40253;DHT22;25972;51.854;4.534;2022-09-09T04:23:09;14.40;99.90
40253;DHT22;25972;51.854;4.534;2022-09-09T04:25:35;14.40;99.90
40253;DHT22;25972;51.854;4.534;2022-09-09T04:28:00;14.40;99.90
40253;DHT22;25972;51.854;4.534;2022-09-09T04:30:27;14.40;99.90
40253;DHT22;25972;51.854;4.534;2022-09-09T04:32:53;14.40;99.90
40253;DHT22;25972;51.854;4.534;2022-09-09T04:35:19;14.40;99.90
40253;DHT22;25972;51.854;4.534;2022-09-09T04:37:46;14.40;99.90
40253;DHT22;25972;51.854;4.534;2022-09-09T04:40:11;14.40;99.90
40253;DHT22;25972;51.854;4.534;2022-09-09T04:42:38;14.40;99.90
40253;DHT22;25972;51.854;4.534;2022-09-09T04:45:05;14.40;99.90
40253;DHT22;25972;51.854;4.534;2022-09-09T04:47:33;14.40;99.90
40253;DHT22;25972;51.854;4.534;2022-09-09T04:50:00;14.50;99.90
40253;DHT22;25972;51.854;4.534;2022-09-09T04:52:26;14.40;99.90
40253;DHT22;25972;51.854;4.534;2022-09-09T04:54:53;14.50;99.90
40253;DHT22;25972;51.854;4.534;2022-09-09T04:57:19;14.50;99.90
40253;DHT22;25972;51.854;4.534;2022-09-09T04:59:46;14.50;99.90
40253;DHT22;25972;51.854;4.534;2022-09-09T05:02:14;14.50;99.90
40253;DHT22;25972;51.854;4.534;2022-09-09T05:04:39;14.50;99.90
40253;DHT22;25972;51.854;4.534;2022-09-09T05:07:06;14.50;99.90
40253;DHT22;25972;51.854;4.534;2022-09-09T05:09:32;14.50;99.90
40253;DHT22;25972;51.854;4.534;2022-09-09T05:11:59;14.50;99.90
40253;DHT22;25972;51.854;4.534;2022-09-09T05:14:31;14.50;99.90
40253;DHT22;25972;51.854;4.534;2022-09-09T05:16:59;14.50;99.90
40253;DHT22;25972;51.854;4.534;2022-09-09T05:19:24;14.50;99.90
40253;DHT22;25972;51.854;4.534;2022-09-09T05:21:52;14.60;99.90
40253;DHT22;25972;51.854;4.534;2022-09-09T05:24:22;14.60;99.90
40253;DHT22;25972;51.854;4.534;2022-09-09T05:26:54;14.60;99.90
40253;DHT22;25972;51.854;4.534;2022-09-09T05:29:24;14.60;99.90
40253;DHT22;25972;51.854;4.534;2022-09-09T05:31:50;14.70;99.90
40253;DHT22;25972;51.854;4.534;2022-09-09T05:34:19;14.70;99.90
40253;DHT22;25972;51.854;4.534;2022-09-09T05:36:46;14.70;99.90
40253;DHT22;25972;51.854;4.534;2022-09-09T05:39:13;14.70;99.90
40253;DHT22;25972;51.854;4.534;2022-09-09T05:41:39;14.80;99.90
40253;DHT22;25972;51.854;4.534;2022-09-09T05:44:05;14.80;99.90
40253;DHT22;25972;51.854;4.534;2022-09-09T05:46:36;14.80;99.90
40253;DHT22;25972;51.854;4.534;2022-09-09T05:49:02;14.90;99.90
40253;DHT22;25972;51.854;4.534;2022-09-09T05:51:34;15.00;99.90
40253;DHT22;25972;51.854;4.534;2022-09-09T05:54:07;15.10;99.90
40253;DHT22;25972;51.854;4.534;2022-09-09T05:56:37;15.10;99.90
40253;DHT22;25972;51.854;4.534;2022-09-09T05:59:06;15.20;99.90
40253;DHT22;25972;51.854;4.534;2022-09-09T06:01:34;15.30;99.90
40253;DHT22;25972;51.854;4.534;2022-09-09T06:04:02;15.40;99.90
40253;DHT22;25972;51.854;4.534;2022-09-09T06:06:35;15.40;99.90
40253;DHT22;25972;51.854;4.534;2022-09-09T06:09:04;15.50;99.90
40253;DHT22;25972;51.854;4.534;2022-09-09T06:11:36;15.60;99.90
40253;DHT22;25972;51.854;4.534;2022-09-09T06:14:03;15.60;99.90
40253;DHT22;25972;51.854;4.534;2022-09-09T06:16:31;15.70;99.90
40253;DHT22;25972;51.854;4.534;2022-09-09T06:19:01;15.80;99.90
40253;DHT22;25972;51.854;4.534;2022-09-09T06:21:34;15.90;99.90
40253;DHT22;25972;51.854;4.534;2022-09-09T06:24:02;16.00;99.90
40253;DHT22;25972;51.854;4.534;2022-09-09T06:26:33;16.10;99.90
40253;DHT22;25972;51.854;4.534;2022-09-09T06:29:01;16.20;99.90
40253;DHT22;25972;51.854;4.534;2022-09-09T06:31:32;16.20;99.90
40253;DHT22;25972;51.854;4.534;2022-09-09T06:34:08;16.20;99.90
40253;DHT22;25972;51.854;4.534;2022-09-09T06:36:37;16.20;99.90
40253;DHT22;25972;51.854;4.534;2022-09-09T06:39:04;16.20;99.90
40253;DHT22;25972;51.854;4.534;2022-09-09T06:41:32;16.20;99.90
40253;DHT22;25972;51.854;4.534;2022-09-09T06:43:59;16.30;99.90
40253;DHT22;25972;51.854;4.534;2022-09-09T06:46:36;16.30;99.90
40253;DHT22;25972;51.854;4.534;2022-09-09T06:49:02;16.40;99.90
40253;DHT22;25972;51.854;4.534;2022-09-09T06:51:30;16.40;99.90
40253;DHT22;25972;51.854;4.534;2022-09-09T06:53:59;16.40;99.90
40253;DHT22;25972;51.854;4.534;2022-09-09T06:56:38;16.40;99.90
40253;DHT22;25972;51.854;4.534;2022-09-09T06:59:11;16.50;99.90
40253;DHT22;25972;51.854;4.534;2022-09-09T07:01:39;16.50;99.90
40253;DHT22;25972;51.854;4.534;2022-09-09T07:04:17;16.50;99.90
40253;DHT22;25972;51.854;4.534;2022-09-09T07:06:45;16.40;99.90
40253;DHT22;25972;51.854;4.534;2022-09-09T07:09:16;16.40;99.90
40253;DHT22;25972;51.854;4.534;2022-09-09T07:11:47;16.40;99.90
40253;DHT22;25972;51.854;4.534;2022-09-09T07:14:14;16.40;99.90
40253;DHT22;25972;51.854;4.534;2022-09-09T07:16:44;16.40;99.90
40253;DHT22;25972;51.854;4.534;2022-09-09T07:19:11;16.50;99.90
40253;DHT22;25972;51.854;4.534;2022-09-09T07:21:37;16.40;99.90
40253;DHT22;25972;51.854;4.534;2022-09-09T07:24:03;16.50;99.90
40253;DHT22;25972;51.854;4.534;2022-09-09T07:26:33;16.40;99.90
40253;DHT22;25972;51.854;4.534;2022-09-09T07:29:00;16.40;99.90
40253;DHT22;25972;51.854;4.534;2022-09-09T07:31:31;16.40;99.90
40253;DHT22;25972;51.854;4.534;2022-09-09T07:33:58;16.40;99.90
40253;DHT22;25972;51.854;4.534;2022-09-09T07:36:36;16.40;99.90
40253;DHT22;25972;51.854;4.534;2022-09-09T07:39:08;16.30;99.90
40253;DHT22;25972;51.854;4.534;2022-09-09T07:41:46;16.30;99.90
40253;DHT22;25972;51.854;4.534;2022-09-09T07:44:19;16.30;99.90
40253;DHT22;25972;51.854;4.534;2022-09-09T07:46:49;16.30;99.90
40253;DHT22;25972;51.854;4.534;2022-09-09T07:49:20;16.30;99.90
40253;DHT22;25972;51.854;4.534;2022-09-09T07:51:47;16.30;99.90
40253;DHT22;25972;51.854;4.534;2022-09-09T07:54:17;16.40;99.90
40253;DHT22;25972;51.854;4.534;2022-09-09T07:56:46;16.40;99.90
40253;DHT22;25972;51.854;4.534;2022-09-09T07:59:13;16.50;99.90
40253;DHT22;25972;51.854;4.534;2022-09-09T08:01:44;16.50;99.90
40253;DHT22;25972;51.854;4.534;2022-09-09T08:04:17;16.60;99.90
40253;DHT22;25972;51.854;4.534;2022-09-09T08:06:46;16.60;99.90
40253;DHT22;25972;51.854;4.534;2022-09-09T08:09:13;16.70;99.90
40253;DHT22;25972;51.854;4.534;2022-09-09T08:11:41;16.70;99.90
40253;DHT22;25972;51.854;4.534;2022-09-09T08:14:08;16.70;99.90
40253;DHT22;25972;51.854;4.534;2022-09-09T08:16:38;16.70;99.90
40253;DHT22;25972;51.854;4.534;2022-09-09T08:19:05;16.80;99.90
40253;DHT22;25972;51.854;4.534;2022-09-09T08:21:35;16.80;99.90
40253;DHT22;25972;51.854;4.534;2022-09-09T08:24:03;16.80;99.90
40253;DHT22;25972;51.854;4.534;2022-09-09T08:26:36;16.80;99.90
40253;DHT22;25972;51.854;4.534;2022-09-09T08:29:04;16.80;99.90
40253;DHT22;25972;51.854;4.534;2022-09-09T08:31:36;16.80;99.90
40253;DHT22;25972;51.854;4.534;2022-09-09T08:34:05;16.80;99.90
40253;DHT22;25972;51.854;4.534;2022-09-09T08:36:35;16.80;99.90
40253;DHT22;25972;51.854;4.534;2022-09-09T08:39:03;16.70;99.90
40253;DHT22;25972;51.854;4.534;2022-09-09T08:46:39;16.70;99.90
40253;DHT22;25972;51.854;4.534;2022-09-09T08:52:03;16.80;99.90
40253;DHT22;25972;51.854;4.534;2022-09-09T08:54:34;16.80;99.90
40253;DHT22;25972;51.854;4.534;2022-09-09T08:57:03;16.90;99.90
40253;DHT22;25972;51.854;4.534;2022-09-09T08:59:33;16.80;99.90
40253;DHT22;25972;51.854;4.534;2022-09-09T09:02:26;16.90;99.90
40253;DHT22;25972;51.854;4.534;2022-09-09T09:05:25;16.80;99.90
40253;DHT22;25972;51.854;4.534;2022-09-09T09:08:03;16.80;99.90
40253;DHT22;25972;51.854;4.534;2022-09-09T09:10:51;16.80;99.90
40253;DHT22;25972;51.854;4.534;2022-09-09T09:13:26;16.80;99.90
40253;DHT22;25972;51.854;4.534;2022-09-09T09:16:11;16.80;99.90
40253;DHT22;25972;51.854;4.534;2022-09-09T09:18:38;16.80;99.90
40253;DHT22;25972;51.854;4.534;2022-09-09T09:21:15;16.80;99.90
40253;DHT22;25972;51.854;4.534;2022-09-09T09:24:13;16.80;99.90
40253;DHT22;25972;51.854;4.534;2022-09-09T09:26:43;16.90;99.90
40253;DHT22;25972;51.854;4.534;2022-09-09T09:29:18;16.80;99.90
40253;DHT22;25972;51.854;4.534;2022-09-09T09:31:52;16.90;99.90
40253;DHT22;25972;51.854;4.534;2022-09-09T09:34:21;16.90;99.90
40253;DHT22;25972;51.854;4.534;2022-09-09T09:36:54;16.90;99.90
40253;DHT22;25972;51.854;4.534;2022-09-09T09:39:29;17.10;99.90
40253;DHT22;25972;51.854;4.534;2022-09-09T09:42:15;17.30;99.90
40253;DHT22;25972;51.854;4.534;2022-09-09T09:44:44;17.50;99.90
40253;DHT22;25972;51.854;4.534;2022-09-09T09:47:19;17.70;99.90
40253;DHT22;25972;51.854;4.534;2022-09-09T09:50:00;17.90;99.90
40253;DHT22;25972;51.854;4.534;2022-09-09T09:52:33;17.90;99.90
40253;DHT22;25972;51.854;4.534;2022-09-09T09:55:03;17.90;99.90
40253;DHT22;25972;51.854;4.534;2022-09-09T09:57:32;17.90;99.90
40253;DHT22;25972;51.854;4.534;2022-09-09T10:02:41;17.90;99.90
40253;DHT22;25972;51.854;4.534;2022-09-09T10:05:17;17.80;99.90
40253;DHT22;25972;51.854;4.534;2022-09-09T10:08:10;17.80;99.90
40253;DHT22;25972;51.854;4.534;2022-09-09T10:16:50;17.50;99.90
40253;DHT22;25972;51.854;4.534;2022-09-09T10:19:32;17.50;99.90
40253;DHT22;25972;51.854;4.534;2022-09-09T10:22:02;17.50;99.90
40253;DHT22;25972;51.854;4.534;2022-09-09T10:25:04;17.50;99.90
40253;DHT22;25972;51.854;4.534;2022-09-09T10:30:21;17.40;99.90
40253;DHT22;25972;51.854;4.534;2022-09-09T10:33:49;17.40;99.90
40253;DHT22;25972;51.854;4.534;2022-09-09T10:38:27;17.40;99.90
40253;DHT22;25972;51.854;4.534;2022-09-09T10:46:35;17.30;99.90
40253;DHT22;25972;51.854;4.534;2022-09-09T10:55:09;17.60;99.90
40253;DHT22;25972;51.854;4.534;2022-09-09T10:57:40;17.70;99.90
40253;DHT22;25972;51.854;4.534;2022-09-09T11:00:24;17.80;99.90
40253;DHT22;25972;51.854;4.534;2022-09-09T11:02:57;18.00;99.90
40253;DHT22;25972;51.854;4.534;2022-09-09T11:05:45;18.10;99.90
40253;DHT22;25972;51.854;4.534;2022-09-09T11:08:24;18.20;99.90
40253;DHT22;25972;51.854;4.534;2022-09-09T11:10:58;18.30;99.90
40253;DHT22;25972;51.854;4.534;2022-09-09T11:16:25;18.50;99.90
40253;DHT22;25972;51.854;4.534;2022-09-09T11:19:11;18.60;99.90
40253;DHT22;25972;51.854;4.534;2022-09-09T11:21:46;18.70;99.90
40253;DHT22;25972;51.854;4.534;2022-09-09T11:24:27;18.70;99.90
40253;DHT22;25972;51.854;4.534;2022-09-09T11:27:15;18.60;99.90
40253;DHT22;25972;51.854;4.534;2022-09-09T11:40:24;18.20;99.90
40253;DHT22;25972;51.854;4.534;2022-09-09T11:43:05;18.20;99.90
40253;DHT22;25972;51.854;4.534;2022-09-09T11:45:34;18.30;99.90
40253;DHT22;25972;51.854;4.534;2022-09-09T11:48:02;18.30;99.90
40253;DHT22;25972;51.854;4.534;2022-09-09T11:50:37;18.40;99.90
40253;DHT22;25972;51.854;4.534;2022-09-09T11:55:39;18.30;99.90
40253;DHT22;25972;51.854;4.534;2022-09-09T12:00:42;18.20;99.90
40253;DHT22;25972;51.854;4.534;2022-09-09T12:03:33;18.30;99.90
40253;DHT22;25972;51.854;4.534;2022-09-09T12:08:42;18.10;99.90
40253;DHT22;25972;51.854;4.534;2022-09-09T12:11:08;18.10;99.90
40253;DHT22;25972;51.854;4.534;2022-09-09T12:13:34;18.20;99.90
40253;DHT22;25972;51.854;4.534;2022-09-09T12:16:02;18.20;99.90
40253;DHT22;25972;51.854;4.534;2022-09-09T12:18:38;18.10;99.90
40253;DHT22;25972;51.854;4.534;2022-09-09T12:24:00;17.90;99.90
40253;DHT22;25972;51.854;4.534;2022-09-09T12:26:58;17.80;99.90
40253;DHT22;25972;51.854;4.534;2022-09-09T12:29:44;17.70;99.90
40253;DHT22;25972;51.854;4.534;2022-09-09T12:32:20;17.50;99.90
40253;DHT22;25972;51.854;4.534;2022-09-09T12:34:52;17.50;99.90
40253;DHT22;25972;51.854;4.534;2022-09-09T12:39:58;17.30;99.90
40253;DHT22;25972;51.854;4.534;2022-09-09T12:42:25;17.10;99.90
40253;DHT22;25972;51.854;4.534;2022-09-09T12:47:19;17.00;99.90
40253;DHT22;25972;51.854;4.534;2022-09-09T12:49:47;16.90;99.90
40253;DHT22;25972;51.854;4.534;2022-09-09T12:52:32;16.70;99.90
40253;DHT22;25972;51.854;4.534;2022-09-09T12:55:03;16.60;99.90
40253;DHT22;25972;51.854;4.534;2022-09-09T12:57:34;16.60;99.90
40253;DHT22;25972;51.854;4.534;2022-09-09T13:00:15;16.60;99.90
40253;DHT22;25972;51.854;4.534;2022-09-09T13:02:55;16.60;99.90
40253;DHT22;25972;51.854;4.534;2022-09-09T13:05:27;16.60;99.90
40253;DHT22;25972;51.854;4.534;2022-09-09T13:08:01;16.70;99.90
40253;DHT22;25972;51.854;4.534;2022-09-09T13:10:31;16.80;99.90
40253;DHT22;25972;51.854;4.534;2022-09-09T13:12:58;16.90;99.90
40253;DHT22;25972;51.854;4.534;2022-09-09T13:15:26;16.90;99.90
40253;DHT22;25972;51.854;4.534;2022-09-09T13:17:54;17.20;99.90
40253;DHT22;25972;51.854;4.534;2022-09-09T13:20:21;17.50;99.90
40253;DHT22;25972;51.854;4.534;2022-09-09T13:22:49;17.60;99.90
40253;DHT22;25972;51.854;4.534;2022-09-09T13:28:04;17.70;99.90
40253;DHT22;25972;51.854;4.534;2022-09-09T13:30:36;17.80;99.90
40253;DHT22;25972;51.854;4.534;2022-09-09T13:33:20;17.80;99.90
40253;DHT22;25972;51.854;4.534;2022-09-09T13:35:58;17.90;99.90
40253;DHT22;25972;51.854;4.534;2022-09-09T13:38:26;17.90;99.90
40253;DHT22;25972;51.854;4.534;2022-09-09T13:41:08;17.90;99.90
40253;DHT22;25972;51.854;4.534;2022-09-09T13:43:43;17.70;99.90
40253;DHT22;25972;51.854;4.534;2022-09-09T13:46:40;17.60;99.90
40253;DHT22;25972;51.854;4.534;2022-09-09T13:51:44;17.50;99.90
40253;DHT22;25972;51.854;4.534;2022-09-09T13:54:14;17.50;99.90
40253;DHT22;25972;51.854;4.534;2022-09-09T13:56:41;17.40;99.90
40253;DHT22;25972;51.854;4.534;2022-09-09T13:59:18;17.40;99.90
40253;DHT22;25972;51.854;4.534;2022-09-09T14:01:45;17.30;99.90
40253;DHT22;25972;51.854;4.534;2022-09-09T14:04:11;17.30;99.90
40253;DHT22;25972;51.854;4.534;2022-09-09T14:06:38;17.30;99.90
40253;DHT22;25972;51.854;4.534;2022-09-09T14:09:12;17.30;99.90
40253;DHT22;25972;51.854;4.534;2022-09-09T14:11:38;17.30;99.90
40253;DHT22;25972;51.854;4.534;2022-09-09T14:14:05;17.20;99.90
40253;DHT22;25972;51.854;4.534;2022-09-09T14:16:31;17.30;99.90
40253;DHT22;25972;51.854;4.534;2022-09-09T14:18:57;17.20;99.90
40253;DHT22;25972;51.854;4.534;2022-09-09T14:21:23;17.20;99.90
40253;DHT22;25972;51.854;4.534;2022-09-09T14:23:49;17.30;99.90
40253;DHT22;25972;51.854;4.534;2022-09-09T14:26:15;17.30;99.90
40253;DHT22;25972;51.854;4.534;2022-09-09T14:28:41;17.20;99.90
40253;DHT22;25972;51.854;4.534;2022-09-09T14:31:07;17.20;99.90
40253;DHT22;25972;51.854;4.534;2022-09-09T14:33:33;17.20;99.90
40253;DHT22;25972;51.854;4.534;2022-09-09T14:36:00;17.20;99.90
40253;DHT22;25972;51.854;4.534;2022-09-09T14:38:30;17.20;99.90
40253;DHT22;25972;51.854;4.534;2022-09-09T14:40:56;17.20;99.90
40253;DHT22;25972;51.854;4.534;2022-09-09T14:43:24;17.30;99.90
40253;DHT22;25972;51.854;4.534;2022-09-09T14:45:49;17.30;99.90
40253;DHT22;25972;51.854;4.534;2022-09-09T14:48:17;17.40;99.90
40253;DHT22;25972;51.854;4.534;2022-09-09T14:50:43;17.30;99.90
40253;DHT22;25972;51.854;4.534;2022-09-09T14:53:09;17.40;99.90
40253;DHT22;25972;51.854;4.534;2022-09-09T14:55:36;17.40;99.90
40253;DHT22;25972;51.854;4.534;2022-09-09T14:58:02;17.60;99.90
40253;DHT22;25972;51.854;4.534;2022-09-09T15:00:28;17.70;99.90
40253;DHT22;25972;51.854;4.534;2022-09-09T15:02:54;17.70;99.90
40253;DHT22;25972;51.854;4.534;2022-09-09T15:05:20;17.80;99.90
40253;DHT22;25972;51.854;4.534;2022-09-09T15:07:46;17.80;99.90
40253;DHT22;25972;51.854;4.534;2022-09-09T15:10:14;17.80;99.90
40253;DHT22;25972;51.854;4.534;2022-09-09T15:12:41;17.90;99.90
40253;DHT22;25972;51.854;4.534;2022-09-09T15:15:07;18.00;99.90
40253;DHT22;25972;51.854;4.534;2022-09-09T15:17:34;18.10;99.90
40253;DHT22;25972;51.854;4.534;2022-09-09T15:19:59;18.00;99.90
40253;DHT22;25972;51.854;4.534;2022-09-09T15:22:25;18.10;99.90
40253;DHT22;25972;51.854;4.534;2022-09-09T15:24:51;18.30;99.90
40253;DHT22;25972;51.854;4.534;2022-09-09T15:27:17;18.50;99.90
40253;DHT22;25972;51.854;4.534;2022-09-09T15:29:43;18.60;99.90
40253;DHT22;25972;51.854;4.534;2022-09-09T15:32:09;18.80;99.90
40253;DHT22;25972;51.854;4.534;2022-09-09T15:34:35;18.80;99.90
40253;DHT22;25972;51.854;4.534;2022-09-09T15:37:01;18.80;99.90
40253;DHT22;25972;51.854;4.534;2022-09-09T15:39:27;19.00;99.90
40253;DHT22;25972;51.854;4.534;2022-09-09T15:41:53;19.00;99.90
40253;DHT22;25972;51.854;4.534;2022-09-09T15:44:19;18.80;99.90
40253;DHT22;25972;51.854;4.534;2022-09-09T15:46:49;19.00;99.90
40253;DHT22;25972;51.854;4.534;2022-09-09T15:49:17;19.00;99.90
40253;DHT22;25972;51.854;4.534;2022-09-09T15:51:46;19.00;99.90
40253;DHT22;25972;51.854;4.534;2022-09-09T15:54:17;19.00;99.90
40253;DHT22;25972;51.854;4.534;2022-09-09T15:56:44;18.80;99.90
40253;DHT22;25972;51.854;4.534;2022-09-09T15:59:10;18.60;99.90
40253;DHT22;25972;51.854;4.534;2022-09-09T16:01:37;18.70;99.90
40253;DHT22;25972;51.854;4.534;2022-09-09T16:04:05;18.70;99.90
40253;DHT22;25972;51.854;4.534;2022-09-09T16:06:32;18.60;99.90
40253;DHT22;25972;51.854;4.534;2022-09-09T16:08:59;18.60;99.90
40253;DHT22;25972;51.854;4.534;2022-09-09T16:11:33;18.60;99.90
40253;DHT22;25972;51.854;4.534;2022-09-09T16:14:00;18.50;99.90
40253;DHT22;25972;51.854;4.534;2022-09-09T16:16:28;18.60;99.90
40253;DHT22;25972;51.854;4.534;2022-09-09T16:19:02;18.50;99.90
40253;DHT22;25972;51.854;4.534;2022-09-09T16:21:30;18.40;99.90
40253;DHT22;25972;51.854;4.534;2022-09-09T16:23:58;18.40;99.90
40253;DHT22;25972;51.854;4.534;2022-09-09T16:26:29;18.40;99.90
40253;DHT22;25972;51.854;4.534;2022-09-09T16:28:55;18.40;99.90
40253;DHT22;25972;51.854;4.534;2022-09-09T16:31:26;18.30;99.90
40253;DHT22;25972;51.854;4.534;2022-09-09T16:33:52;18.20;99.90
40253;DHT22;25972;51.854;4.534;2022-09-09T16:38:44;18.10;99.90
40253;DHT22;25972;51.854;4.534;2022-09-09T16:41:11;18.20;99.90
40253;DHT22;25972;51.854;4.534;2022-09-09T16:43:38;18.20;99.90
40253;DHT22;25972;51.854;4.534;2022-09-09T16:46:14;18.30;99.90
40253;DHT22;25972;51.854;4.534;2022-09-09T16:48:42;18.30;99.90
40253;DHT22;25972;51.854;4.534;2022-09-09T16:51:13;18.30;99.90
40253;DHT22;25972;51.854;4.534;2022-09-09T16:53:40;18.30;99.90
40253;DHT22;25972;51.854;4.534;2022-09-09T16:56:15;18.20;99.90
40253;DHT22;25972;51.854;4.534;2022-09-09T16:58:42;18.10;99.90
40253;DHT22;25972;51.854;4.534;2022-09-09T17:01:11;18.00;99.90
40253;DHT22;25972;51.854;4.534;2022-09-09T17:03:40;17.90;99.90
40253;DHT22;25972;51.854;4.534;2022-09-09T17:06:14;17.90;99.90
40253;DHT22;25972;51.854;4.534;2022-09-09T17:08:40;17.80;99.90
40253;DHT22;25972;51.854;4.534;2022-09-09T17:11:14;17.80;99.90
40253;DHT22;25972;51.854;4.534;2022-09-09T17:13:44;17.70;99.90
40253;DHT22;25972;51.854;4.534;2022-09-09T17:16:12;17.70;99.90
40253;DHT22;25972;51.854;4.534;2022-09-09T17:18:38;17.60;99.90
40253;DHT22;25972;51.854;4.534;2022-09-09T17:21:06;17.60;99.90
40253;DHT22;25972;51.854;4.534;2022-09-09T17:23:36;17.50;99.90
40253;DHT22;25972;51.854;4.534;2022-09-09T17:26:05;17.40;99.90
40253;DHT22;25972;51.854;4.534;2022-09-09T17:28:32;17.40;99.90
40253;DHT22;25972;51.854;4.534;2022-09-09T17:30:58;17.30;99.90
40253;DHT22;25972;51.854;4.534;2022-09-09T17:33:27;17.30;99.90
40253;DHT22;25972;51.854;4.534;2022-09-09T17:36:05;17.20;99.90
40253;DHT22;25972;51.854;4.534;2022-09-09T17:38:32;17.20;99.90
40253;DHT22;25972;51.854;4.534;2022-09-09T17:41:07;17.20;99.90
40253;DHT22;25972;51.854;4.534;2022-09-09T17:43:34;17.20;99.90
40253;DHT22;25972;51.854;4.534;2022-09-09T17:46:48;17.10;99.90
40253;DHT22;25972;51.854;4.534;2022-09-09T17:48:57;17.10;99.90
40253;DHT22;25972;51.854;4.534;2022-09-09T17:51:24;17.10;99.90
40253;DHT22;25972;51.854;4.534;2022-09-09T17:53:53;17.00;99.90
40253;DHT22;25972;51.854;4.534;2022-09-09T17:56:22;17.00;99.90
40253;DHT22;25972;51.854;4.534;2022-09-09T17:58:49;17.00;99.90
40253;DHT22;25972;51.854;4.534;2022-09-09T18:01:20;16.90;99.90